map of TMR home
TMR - Airport
Location
City:  Tamanrasset, Tamanrasset, Algeria
Name:Aguemar-Hadj Bey Akhamok
ICAO:DAAT
IATA:TMR

Details
Type:Airport (Aerodrome, Airfield)
Latitude:2248'40"N (22.811111)
Longitude:527'03"E (5.450833)
Elevation:4518 ft (1377 m)
Variation:0.63E (WMM2015 magnetic declination)
0.08 annual change
Runways:2
Longest:11811 × 148 ft (3600 × 45 m), paved

Time
Time Zone:UTC+1
Local Time:

Weather
METAR:DAAT 220430Z 34008KT CAVOK 17/M06 Q1017
TAF:DAAT 212300Z 2200/2224 33008KT CAVOK
BECMG 2211/2213 27012KT PROB30
TEMPO 2212/2215 27015G25KT

Related Locations
Nearby:
Farthest:EUA: 12329 mi / 19841 km
Eua [Kaufana], TO

Find:

   beyond  
but within

Other Information
Maps:
NOTAMs:
Links:
Sources:

  
flag of Algeria   

Sectional Chart

Flight Planning
at skyvector.com

Satellite Image

Google Maps Satellite view

 

Copyright © 2004-2018 Karl L. Swartz. All rights reserved.
The Great Circle Mapper name and logo are trademarks of the Great Circle Mapper.
All other trademarks mentioned herein belong to their respective owners.
Please see credits for attibutions and further copyright information.

  Follow gcmap on Facebook Follow gcmap on Twitter Follow gcmap on Google+ GCmap on LinkedIn

hCard Microformat

Geo Microformat